Terminal Aerodrome Forecast
Issued by NWS Lake Charles, LA

Home | Current Version | Previous Version | Text Only | Print | Product List | Glossary On
Versions: 1 2 3 4 5 6 7 8 9 10 11 12 13 14 15 16
705
FTUS44 KLCH 260711 AAA
TAFAEX
TAF AMD
KAEX 260711Z 2607/2706 00000KT 1SM BR SCT005
     FM261500 18007KT P6SM BKN015
     FM261800 17012G18KT P6SM BKN025
     FM270100 16008KT P6SM SCT025=

USA.gov is the U.S. government's official web portal to all federal, state and local government web resources and services.